sensor_id;sensor_type;location;lat;lon;timestamp;P1;durP1;ratioP1;P2;durP2;ratioP2
20090;SDS011;10205;49.678;6.560;2022-08-21T00:00:12;3.42;;;1.90;;
20090;SDS011;10205;49.678;6.560;2022-08-21T00:02:44;3.80;;;1.55;;
20090;SDS011;10205;49.678;6.560;2022-08-21T00:05:13;2.35;;;1.55;;
20090;SDS011;10205;49.678;6.560;2022-08-21T00:07:41;2.30;;;1.65;;
20090;SDS011;10205;49.678;6.560;2022-08-21T00:10:09;2.80;;;1.70;;
20090;SDS011;10205;49.678;6.560;2022-08-21T00:12:37;2.25;;;1.73;;
20090;SDS011;10205;49.678;6.560;2022-08-21T00:15:08;3.35;;;1.70;;
20090;SDS011;10205;49.678;6.560;2022-08-21T00:17:38;4.00;;;1.73;;
20090;SDS011;10205;49.678;6.560;2022-08-21T00:20:08;3.25;;;1.85;;
20090;SDS011;10205;49.678;6.560;2022-08-21T00:22:41;2.40;;;1.98;;
20090;SDS011;10205;49.678;6.560;2022-08-21T00:25:09;3.22;;;1.85;;
20090;SDS011;10205;49.678;6.560;2022-08-21T00:27:37;2.63;;;2.00;;
20090;SDS011;10205;49.678;6.560;2022-08-21T00:30:08;2.25;;;1.83;;
20090;SDS011;10205;49.678;6.560;2022-08-21T00:32:39;2.35;;;1.60;;
20090;SDS011;10205;49.678;6.560;2022-08-21T00:35:08;2.10;;;1.48;;
20090;SDS011;10205;49.678;6.560;2022-08-21T00:37:39;2.40;;;1.73;;
20090;SDS011;10205;49.678;6.560;2022-08-21T00:40:09;2.65;;;1.67;;
20090;SDS011;10205;49.678;6.560;2022-08-21T00:42:41;2.78;;;1.42;;
20090;SDS011;10205;49.678;6.560;2022-08-21T00:45:10;1.88;;;1.48;;
20090;SDS011;10205;49.678;6.560;2022-08-21T00:47:38;2.33;;;1.58;;
20090;SDS011;10205;49.678;6.560;2022-08-21T00:50:06;2.45;;;1.50;;
20090;SDS011;10205;49.678;6.560;2022-08-21T00:52:37;3.53;;;2.05;;
20090;SDS011;10205;49.678;6.560;2022-08-21T00:55:06;2.10;;;1.60;;
20090;SDS011;10205;49.678;6.560;2022-08-21T00:57:38;3.55;;;1.77;;
20090;SDS011;10205;49.678;6.560;2022-08-21T01:00:14;2.83;;;1.70;;
20090;SDS011;10205;49.678;6.560;2022-08-21T01:02:45;2.30;;;1.35;;
20090;SDS011;10205;49.678;6.560;2022-08-21T01:05:13;1.92;;;1.60;;
20090;SDS011;10205;49.678;6.560;2022-08-21T01:07:42;3.10;;;1.50;;
20090;SDS011;10205;49.678;6.560;2022-08-21T01:10:10;2.00;;;1.52;;
20090;SDS011;10205;49.678;6.560;2022-08-21T01:12:39;2.08;;;1.58;;
20090;SDS011;10205;49.678;6.560;2022-08-21T01:15:08;2.42;;;1.60;;
20090;SDS011;10205;49.678;6.560;2022-08-21T01:17:38;1.77;;;1.52;;
20090;SDS011;10205;49.678;6.560;2022-08-21T01:20:06;2.50;;;1.65;;
20090;SDS011;10205;49.678;6.560;2022-08-21T01:22:40;3.65;;;1.90;;
20090;SDS011;10205;49.678;6.560;2022-08-21T01:25:07;3.55;;;1.77;;
20090;SDS011;10205;49.678;6.560;2022-08-21T01:27:37;2.45;;;1.60;;
20090;SDS011;10205;49.678;6.560;2022-08-21T01:30:08;3.85;;;1.73;;
20090;SDS011;10205;49.678;6.560;2022-08-21T01:32:40;2.28;;;1.58;;
20090;SDS011;10205;49.678;6.560;2022-08-21T01:35:12;2.05;;;1.40;;
20090;SDS011;10205;49.678;6.560;2022-08-21T01:37:43;2.47;;;1.83;;
20090;SDS011;10205;49.678;6.560;2022-08-21T01:40:11;2.75;;;1.60;;
20090;SDS011;10205;49.678;6.560;2022-08-21T01:42:42;2.47;;;1.55;;
20090;SDS011;10205;49.678;6.560;2022-08-21T01:45:11;2.05;;;1.50;;
20090;SDS011;10205;49.678;6.560;2022-08-21T01:47:40;2.70;;;1.45;;
20090;SDS011;10205;49.678;6.560;2022-08-21T01:50:09;2.60;;;1.80;;
20090;SDS011;10205;49.678;6.560;2022-08-21T01:52:40;2.53;;;1.60;;
20090;SDS011;10205;49.678;6.560;2022-08-21T01:55:10;2.90;;;1.40;;
20090;SDS011;10205;49.678;6.560;2022-08-21T01:57:38;2.65;;;1.75;;
20090;SDS011;10205;49.678;6.560;2022-08-21T02:00:07;2.28;;;1.52;;
20090;SDS011;10205;49.678;6.560;2022-08-21T02:02:38;2.65;;;1.65;;
20090;SDS011;10205;49.678;6.560;2022-08-21T02:05:07;2.80;;;1.40;;
20090;SDS011;10205;49.678;6.560;2022-08-21T02:07:36;2.30;;;1.50;;
20090;SDS011;10205;49.678;6.560;2022-08-21T02:10:08;3.90;;;1.65;;
20090;SDS011;10205;49.678;6.560;2022-08-21T02:12:38;2.60;;;1.70;;
20090;SDS011;10205;49.678;6.560;2022-08-21T02:15:06;4.45;;;1.80;;
20090;SDS011;10205;49.678;6.560;2022-08-21T02:17:39;2.47;;;1.90;;
20090;SDS011;10205;49.678;6.560;2022-08-21T02:20:09;3.00;;;1.85;;
20090;SDS011;10205;49.678;6.560;2022-08-21T02:22:41;2.10;;;1.63;;
20090;SDS011;10205;49.678;6.560;2022-08-21T02:25:10;1.88;;;1.40;;
20090;SDS011;10205;49.678;6.560;2022-08-21T02:27:39;1.88;;;1.30;;
20090;SDS011;10205;49.678;6.560;2022-08-21T02:30:08;2.75;;;1.60;;
20090;SDS011;10205;49.678;6.560;2022-08-21T02:32:38;2.45;;;1.70;;
20090;SDS011;10205;49.678;6.560;2022-08-21T02:35:07;1.92;;;1.42;;
20090;SDS011;10205;49.678;6.560;2022-08-21T02:37:42;2.15;;;1.50;;
20090;SDS011;10205;49.678;6.560;2022-08-21T02:40:13;3.05;;;1.58;;
20090;SDS011;10205;49.678;6.560;2022-08-21T02:42:44;2.70;;;1.40;;
20090;SDS011;10205;49.678;6.560;2022-08-21T02:45:12;2.97;;;1.70;;
20090;SDS011;10205;49.678;6.560;2022-08-21T02:47:46;2.25;;;1.70;;
20090;SDS011;10205;49.678;6.560;2022-08-21T02:50:17;2.20;;;1.58;;
20090;SDS011;10205;49.678;6.560;2022-08-21T02:52:48;1.40;;;1.30;;
20090;SDS011;10205;49.678;6.560;2022-08-21T02:55:19;3.22;;;2.03;;
20090;SDS011;10205;49.678;6.560;2022-08-21T02:57:47;2.17;;;1.63;;
20090;SDS011;10205;49.678;6.560;2022-08-21T03:00:15;2.55;;;1.70;;
20090;SDS011;10205;49.678;6.560;2022-08-21T03:02:43;2.42;;;1.63;;
20090;SDS011;10205;49.678;6.560;2022-08-21T03:05:12;2.35;;;1.83;;
20090;SDS011;10205;49.678;6.560;2022-08-21T03:07:41;3.85;;;1.60;;
20090;SDS011;10205;49.678;6.560;2022-08-21T03:10:09;2.20;;;1.30;;
20090;SDS011;10205;49.678;6.560;2022-08-21T03:12:39;2.10;;;1.75;;
20090;SDS011;10205;49.678;6.560;2022-08-21T03:15:08;2.08;;;1.52;;
20090;SDS011;10205;49.678;6.560;2022-08-21T03:17:38;1.80;;;1.60;;
20090;SDS011;10205;49.678;6.560;2022-08-21T03:20:06;2.40;;;1.45;;
20090;SDS011;10205;49.678;6.560;2022-08-21T03:22:35;1.70;;;1.52;;
20090;SDS011;10205;49.678;6.560;2022-08-21T03:25:02;1.90;;;1.48;;
20090;SDS011;10205;49.678;6.560;2022-08-21T03:27:30;2.25;;;1.40;;
20090;SDS011;10205;49.678;6.560;2022-08-21T03:30:00;2.15;;;1.63;;
20090;SDS011;10205;49.678;6.560;2022-08-21T03:32:29;1.77;;;1.52;;
20090;SDS011;10205;49.678;6.560;2022-08-21T03:34:56;2.42;;;1.63;;
20090;SDS011;10205;49.678;6.560;2022-08-21T03:37:25;2.83;;;1.45;;
20090;SDS011;10205;49.678;6.560;2022-08-21T03:39:53;3.22;;;1.70;;
20090;SDS011;10205;49.678;6.560;2022-08-21T03:42:20;2.17;;;1.70;;
20090;SDS011;10205;49.678;6.560;2022-08-21T03:44:47;3.63;;;1.90;;
20090;SDS011;10205;49.678;6.560;2022-08-21T03:47:16;2.75;;;1.60;;
20090;SDS011;10205;49.678;6.560;2022-08-21T03:49:43;3.13;;;1.75;;
20090;SDS011;10205;49.678;6.560;2022-08-21T03:52:11;2.85;;;1.90;;
20090;SDS011;10205;49.678;6.560;2022-08-21T03:54:38;2.28;;;1.67;;
20090;SDS011;10205;49.678;6.560;2022-08-21T03:57:06;2.05;;;1.65;;
20090;SDS011;10205;49.678;6.560;2022-08-21T03:59:34;9.75;;;1.67;;
20090;SDS011;10205;49.678;6.560;2022-08-21T04:02:04;3.13;;;1.73;;
20090;SDS011;10205;49.678;6.560;2022-08-21T04:04:34;2.72;;;1.48;;
20090;SDS011;10205;49.678;6.560;2022-08-21T04:07:02;2.22;;;1.35;;
20090;SDS011;10205;49.678;6.560;2022-08-21T04:09:30;2.65;;;1.58;;
20090;SDS011;10205;49.678;6.560;2022-08-21T04:11:57;2.53;;;1.55;;
20090;SDS011;10205;49.678;6.560;2022-08-21T04:14:26;2.25;;;1.65;;
20090;SDS011;10205;49.678;6.560;2022-08-21T04:16:55;2.58;;;1.90;;
20090;SDS011;10205;49.678;6.560;2022-08-21T04:19:23;4.60;;;2.03;;
20090;SDS011;10205;49.678;6.560;2022-08-21T04:21:52;2.78;;;1.90;;
20090;SDS011;10205;49.678;6.560;2022-08-21T04:24:19;1.73;;;1.50;;
20090;SDS011;10205;49.678;6.560;2022-08-21T04:26:46;2.65;;;1.80;;
20090;SDS011;10205;49.678;6.560;2022-08-21T04:29:13;3.67;;;1.73;;
20090;SDS011;10205;49.678;6.560;2022-08-21T04:31:40;3.60;;;1.90;;
20090;SDS011;10205;49.678;6.560;2022-08-21T04:34:08;1.92;;;1.50;;
20090;SDS011;10205;49.678;6.560;2022-08-21T04:36:36;2.10;;;1.60;;
20090;SDS011;10205;49.678;6.560;2022-08-21T04:39:04;2.28;;;1.70;;
20090;SDS011;10205;49.678;6.560;2022-08-21T04:41:32;2.53;;;1.67;;
20090;SDS011;10205;49.678;6.560;2022-08-21T04:43:59;2.90;;;1.83;;
20090;SDS011;10205;49.678;6.560;2022-08-21T04:46:26;2.00;;;1.80;;
20090;SDS011;10205;49.678;6.560;2022-08-21T04:48:53;3.05;;;1.95;;
20090;SDS011;10205;49.678;6.560;2022-08-21T04:51:22;2.25;;;1.45;;
20090;SDS011;10205;49.678;6.560;2022-08-21T04:53:55;2.83;;;1.70;;
20090;SDS011;10205;49.678;6.560;2022-08-21T04:56:29;2.47;;;1.85;;
20090;SDS011;10205;49.678;6.560;2022-08-21T04:59:06;2.60;;;1.67;;
20090;SDS011;10205;49.678;6.560;2022-08-21T05:01:41;3.75;;;2.20;;
20090;SDS011;10205;49.678;6.560;2022-08-21T05:04:11;3.03;;;1.90;;
20090;SDS011;10205;49.678;6.560;2022-08-21T05:06:44;2.65;;;1.55;;
20090;SDS011;10205;49.678;6.560;2022-08-21T05:09:15;3.63;;;2.00;;
20090;SDS011;10205;49.678;6.560;2022-08-21T05:11:47;2.75;;;1.75;;
20090;SDS011;10205;49.678;6.560;2022-08-21T05:14:16;2.75;;;1.52;;
20090;SDS011;10205;49.678;6.560;2022-08-21T05:16:44;2.45;;;1.73;;
20090;SDS011;10205;49.678;6.560;2022-08-21T05:19:12;4.25;;;2.10;;
20090;SDS011;10205;49.678;6.560;2022-08-21T05:21:41;2.75;;;1.75;;
20090;SDS011;10205;49.678;6.560;2022-08-21T05:24:12;2.03;;;1.50;;
20090;SDS011;10205;49.678;6.560;2022-08-21T05:26:39;3.33;;;2.03;;
20090;SDS011;10205;49.678;6.560;2022-08-21T05:29:08;2.67;;;1.73;;
20090;SDS011;10205;49.678;6.560;2022-08-21T05:31:35;1.65;;;1.35;;
20090;SDS011;10205;49.678;6.560;2022-08-21T05:34:03;2.00;;;1.65;;
20090;SDS011;10205;49.678;6.560;2022-08-21T05:36:30;2.85;;;1.67;;
20090;SDS011;10205;49.678;6.560;2022-08-21T05:38:58;3.08;;;1.67;;
20090;SDS011;10205;49.678;6.560;2022-08-21T05:41:25;1.80;;;1.60;;
20090;SDS011;10205;49.678;6.560;2022-08-21T05:43:52;2.42;;;1.55;;
20090;SDS011;10205;49.678;6.560;2022-08-21T05:46:21;2.15;;;1.88;;
20090;SDS011;10205;49.678;6.560;2022-08-21T05:48:48;3.13;;;1.92;;
20090;SDS011;10205;49.678;6.560;2022-08-21T05:51:15;3.38;;;1.90;;
20090;SDS011;10205;49.678;6.560;2022-08-21T05:53:43;2.15;;;1.58;;
20090;SDS011;10205;49.678;6.560;2022-08-21T05:56:11;2.50;;;1.48;;
20090;SDS011;10205;49.678;6.560;2022-08-21T05:58:39;1.60;;;1.50;;
20090;SDS011;10205;49.678;6.560;2022-08-21T06:01:08;2.20;;;1.70;;
20090;SDS011;10205;49.678;6.560;2022-08-21T06:03:38;2.20;;;1.50;;
20090;SDS011;10205;49.678;6.560;2022-08-21T06:06:07;3.03;;;1.70;;
20090;SDS011;10205;49.678;6.560;2022-08-21T06:08:35;2.53;;;1.70;;
20090;SDS011;10205;49.678;6.560;2022-08-21T06:11:03;3.55;;;2.28;;
20090;SDS011;10205;49.678;6.560;2022-08-21T06:13:32;3.88;;;2.20;;
20090;SDS011;10205;49.678;6.560;2022-08-21T06:16:00;2.90;;;1.73;;
20090;SDS011;10205;49.678;6.560;2022-08-21T06:18:31;1.60;;;1.50;;
20090;SDS011;10205;49.678;6.560;2022-08-21T06:21:00;3.03;;;1.92;;
20090;SDS011;10205;49.678;6.560;2022-08-21T06:23:28;4.22;;;2.20;;
20090;SDS011;10205;49.678;6.560;2022-08-21T06:25:55;2.42;;;1.63;;
20090;SDS011;10205;49.678;6.560;2022-08-21T06:28:22;3.80;;;1.85;;
20090;SDS011;10205;49.678;6.560;2022-08-21T06:30:50;2.28;;;1.65;;
20090;SDS011;10205;49.678;6.560;2022-08-21T06:33:17;2.45;;;1.80;;
20090;SDS011;10205;49.678;6.560;2022-08-21T06:35:44;2.50;;;1.70;;
20090;SDS011;10205;49.678;6.560;2022-08-21T06:38:13;3.20;;;2.03;;
20090;SDS011;10205;49.678;6.560;2022-08-21T06:40:40;3.05;;;2.08;;
20090;SDS011;10205;49.678;6.560;2022-08-21T06:43:08;4.03;;;2.22;;
20090;SDS011;10205;49.678;6.560;2022-08-21T06:45:38;2.17;;;1.63;;
20090;SDS011;10205;49.678;6.560;2022-08-21T06:48:11;3.40;;;2.13;;
20090;SDS011;10205;49.678;6.560;2022-08-21T06:50:38;3.40;;;2.05;;
20090;SDS011;10205;49.678;6.560;2022-08-21T06:53:07;3.63;;;2.30;;
20090;SDS011;10205;49.678;6.560;2022-08-21T06:55:39;3.63;;;2.20;;
20090;SDS011;10205;49.678;6.560;2022-08-21T06:58:08;3.58;;;2.13;;
20090;SDS011;10205;49.678;6.560;2022-08-21T07:00:38;3.08;;;2.00;;
20090;SDS011;10205;49.678;6.560;2022-08-21T07:03:07;3.30;;;2.30;;
20090;SDS011;10205;49.678;6.560;2022-08-21T07:05:42;3.72;;;2.15;;
20090;SDS011;10205;49.678;6.560;2022-08-21T07:08:12;2.17;;;1.80;;
20090;SDS011;10205;49.678;6.560;2022-08-21T07:10:41;6.00;;;2.58;;
20090;SDS011;10205;49.678;6.560;2022-08-21T07:13:08;3.58;;;2.50;;
20090;SDS011;10205;49.678;6.560;2022-08-21T07:15:36;3.33;;;2.15;;
20090;SDS011;10205;49.678;6.560;2022-08-21T07:18:03;3.35;;;1.80;;
20090;SDS011;10205;49.678;6.560;2022-08-21T07:20:31;3.47;;;2.35;;
20090;SDS011;10205;49.678;6.560;2022-08-21T07:22:59;4.47;;;2.83;;
20090;SDS011;10205;49.678;6.560;2022-08-21T07:25:33;4.15;;;2.22;;
20090;SDS011;10205;49.678;6.560;2022-08-21T07:28:02;3.58;;;2.30;;
20090;SDS011;10205;49.678;6.560;2022-08-21T07:30:30;5.55;;;2.60;;
20090;SDS011;10205;49.678;6.560;2022-08-21T07:32:57;4.32;;;2.33;;
20090;SDS011;10205;49.678;6.560;2022-08-21T07:35:25;8.73;;;3.00;;
20090;SDS011;10205;49.678;6.560;2022-08-21T07:37:53;3.28;;;2.15;;
20090;SDS011;10205;49.678;6.560;2022-08-21T07:40:20;3.50;;;2.53;;
20090;SDS011;10205;49.678;6.560;2022-08-21T07:42:47;3.72;;;2.15;;
20090;SDS011;10205;49.678;6.560;2022-08-21T07:45:18;5.65;;;2.40;;
20090;SDS011;10205;49.678;6.560;2022-08-21T07:47:47;3.90;;;2.85;;
20090;SDS011;10205;49.678;6.560;2022-08-21T07:50:15;6.18;;;2.83;;
20090;SDS011;10205;49.678;6.560;2022-08-21T07:52:43;5.50;;;2.85;;
20090;SDS011;10205;49.678;6.560;2022-08-21T07:55:12;5.47;;;2.92;;
20090;SDS011;10205;49.678;6.560;2022-08-21T07:57:43;4.00;;;2.28;;
20090;SDS011;10205;49.678;6.560;2022-08-21T08:00:13;5.28;;;2.70;;
20090;SDS011;10205;49.678;6.560;2022-08-21T08:02:45;6.68;;;2.67;;
20090;SDS011;10205;49.678;6.560;2022-08-21T08:05:16;5.53;;;2.80;;
20090;SDS011;10205;49.678;6.560;2022-08-21T08:07:46;7.40;;;2.80;;
20090;SDS011;10205;49.678;6.560;2022-08-21T08:10:14;5.05;;;2.45;;
20090;SDS011;10205;49.678;6.560;2022-08-21T08:12:43;4.72;;;2.50;;
20090;SDS011;10205;49.678;6.560;2022-08-21T08:15:12;6.93;;;2.70;;
20090;SDS011;10205;49.678;6.560;2022-08-21T08:17:42;7.43;;;3.25;;
20090;SDS011;10205;49.678;6.560;2022-08-21T08:20:10;3.65;;;2.60;;
20090;SDS011;10205;49.678;6.560;2022-08-21T08:22:40;3.97;;;2.25;;
20090;SDS011;10205;49.678;6.560;2022-08-21T08:25:08;3.97;;;2.20;;
20090;SDS011;10205;49.678;6.560;2022-08-21T08:27:37;3.08;;;2.55;;
20090;SDS011;10205;49.678;6.560;2022-08-21T08:30:07;5.25;;;2.50;;
20090;SDS011;10205;49.678;6.560;2022-08-21T08:32:37;3.97;;;2.70;;
20090;SDS011;10205;49.678;6.560;2022-08-21T08:35:05;5.07;;;3.13;;
20090;SDS011;10205;49.678;6.560;2022-08-21T08:37:35;5.82;;;2.22;;
20090;SDS011;10205;49.678;6.560;2022-08-21T08:40:05;4.18;;;2.50;;
20090;SDS011;10205;49.678;6.560;2022-08-21T08:42:36;4.00;;;2.45;;
20090;SDS011;10205;49.678;6.560;2022-08-21T08:45:05;6.25;;;2.60;;
20090;SDS011;10205;49.678;6.560;2022-08-21T08:47:37;5.82;;;2.70;;
20090;SDS011;10205;49.678;6.560;2022-08-21T08:50:11;4.93;;;2.60;;
20090;SDS011;10205;49.678;6.560;2022-08-21T08:52:51;6.85;;;2.60;;
20090;SDS011;10205;49.678;6.560;2022-08-21T08:55:26;4.28;;;2.63;;
20090;SDS011;10205;49.678;6.560;2022-08-21T08:58:02;4.63;;;2.55;;
20090;SDS011;10205;49.678;6.560;2022-08-21T09:00:29;4.90;;;2.25;;
20090;SDS011;10205;49.678;6.560;2022-08-21T09:02:59;6.35;;;3.00;;
20090;SDS011;10205;49.678;6.560;2022-08-21T09:05:35;8.65;;;2.80;;
20090;SDS011;10205;49.678;6.560;2022-08-21T09:08:27;6.53;;;2.67;;
20090;SDS011;10205;49.678;6.560;2022-08-21T09:11:15;5.68;;;2.17;;
20090;SDS011;10205;49.678;6.560;2022-08-21T09:13:56;5.10;;;2.15;;
20090;SDS011;10205;49.678;6.560;2022-08-21T09:16:40;4.47;;;2.40;;
20090;SDS011;10205;49.678;6.560;2022-08-21T09:19:22;3.60;;;2.40;;
20090;SDS011;10205;49.678;6.560;2022-08-21T09:22:07;4.80;;;1.85;;
20090;SDS011;10205;49.678;6.560;2022-08-21T09:24:47;4.20;;;1.85;;
20090;SDS011;10205;49.678;6.560;2022-08-21T09:27:25;5.32;;;2.25;;
20090;SDS011;10205;49.678;6.560;2022-08-21T09:29:53;5.65;;;1.90;;
20090;SDS011;10205;49.678;6.560;2022-08-21T09:32:24;5.15;;;1.92;;
20090;SDS011;10205;49.678;6.560;2022-08-21T09:34:58;3.17;;;1.95;;
20090;SDS011;10205;49.678;6.560;2022-08-21T09:37:31;3.47;;;2.03;;
20090;SDS011;10205;49.678;6.560;2022-08-21T09:40:17;6.57;;;2.00;;
20090;SDS011;10205;49.678;6.560;2022-08-21T09:42:56;6.93;;;2.05;;
20090;SDS011;10205;49.678;6.560;2022-08-21T09:45:26;3.58;;;1.90;;
20090;SDS011;10205;49.678;6.560;2022-08-21T09:47:55;4.88;;;2.05;;
20090;SDS011;10205;49.678;6.560;2022-08-21T09:50:23;3.67;;;2.17;;
20090;SDS011;10205;49.678;6.560;2022-08-21T09:52:54;5.00;;;2.45;;
20090;SDS011;10205;49.678;6.560;2022-08-21T09:55:31;4.13;;;1.90;;
20090;SDS011;10205;49.678;6.560;2022-08-21T09:58:31;4.82;;;1.90;;
20090;SDS011;10205;49.678;6.560;2022-08-21T10:01:03;6.15;;;2.17;;
20090;SDS011;10205;49.678;6.560;2022-08-21T10:03:32;4.25;;;1.70;;
20090;SDS011;10205;49.678;6.560;2022-08-21T10:06:01;6.68;;;2.10;;
20090;SDS011;10205;49.678;6.560;2022-08-21T10:08:34;4.30;;;1.98;;
20090;SDS011;10205;49.678;6.560;2022-08-21T10:11:07;4.07;;;2.15;;
20090;SDS011;10205;49.678;6.560;2022-08-21T10:13:40;5.45;;;2.17;;
20090;SDS011;10205;49.678;6.560;2022-08-21T10:16:27;3.50;;;2.22;;
20090;SDS011;10205;49.678;6.560;2022-08-21T10:19:11;5.07;;;1.90;;
20090;SDS011;10205;49.678;6.560;2022-08-21T10:21:53;5.85;;;2.00;;
20090;SDS011;10205;49.678;6.560;2022-08-21T10:24:37;5.68;;;1.95;;
20090;SDS011;10205;49.678;6.560;2022-08-21T10:27:18;4.50;;;1.83;;
20090;SDS011;10205;49.678;6.560;2022-08-21T10:29:59;6.90;;;1.98;;
20090;SDS011;10205;49.678;6.560;2022-08-21T10:35:37;3.35;;;1.75;;
20090;SDS011;10205;49.678;6.560;2022-08-21T10:38:35;4.28;;;2.28;;
20090;SDS011;10205;49.678;6.560;2022-08-21T10:41:41;3.63;;;1.80;;
20090;SDS011;10205;49.678;6.560;2022-08-21T10:44:29;5.18;;;1.80;;
20090;SDS011;10205;49.678;6.560;2022-08-21T10:47:06;4.70;;;1.88;;
20090;SDS011;10205;49.678;6.560;2022-08-21T10:49:43;5.25;;;2.05;;
20090;SDS011;10205;49.678;6.560;2022-08-21T10:55:23;5.43;;;2.30;;
20090;SDS011;10205;49.678;6.560;2022-08-21T10:57:58;4.32;;;2.15;;
20090;SDS011;10205;49.678;6.560;2022-08-21T11:00:35;4.60;;;1.90;;
20090;SDS011;10205;49.678;6.560;2022-08-21T11:03:12;4.80;;;1.83;;
20090;SDS011;10205;49.678;6.560;2022-08-21T11:05:46;3.80;;;1.83;;
20090;SDS011;10205;49.678;6.560;2022-08-21T11:08:20;4.43;;;1.75;;
20090;SDS011;10205;49.678;6.560;2022-08-21T11:10:53;6.65;;;1.67;;
20090;SDS011;10205;49.678;6.560;2022-08-21T11:13:31;6.03;;;2.25;;
20090;SDS011;10205;49.678;6.560;2022-08-21T11:16:09;2.88;;;1.98;;
20090;SDS011;10205;49.678;6.560;2022-08-21T11:18:53;4.95;;;2.40;;
20090;SDS011;10205;49.678;6.560;2022-08-21T11:21:30;3.10;;;1.40;;
20090;SDS011;10205;49.678;6.560;2022-08-21T11:24:10;3.88;;;1.80;;
20090;SDS011;10205;49.678;6.560;2022-08-21T11:26:57;3.10;;;1.88;;
20090;SDS011;10205;49.678;6.560;2022-08-21T11:29:31;3.90;;;1.88;;
20090;SDS011;10205;49.678;6.560;2022-08-21T11:32:11;5.22;;;1.58;;
20090;SDS011;10205;49.678;6.560;2022-08-21T11:35:10;4.82;;;1.80;;
20090;SDS011;10205;49.678;6.560;2022-08-21T11:37:51;3.80;;;1.52;;
20090;SDS011;10205;49.678;6.560;2022-08-21T11:40:52;5.60;;;2.35;;
20090;SDS011;10205;49.678;6.560;2022-08-21T11:43:46;3.05;;;1.58;;
20090;SDS011;10205;49.678;6.560;2022-08-21T11:46:25;2.75;;;1.70;;
20090;SDS011;10205;49.678;6.560;2022-08-21T11:49:06;3.75;;;1.80;;
20090;SDS011;10205;49.678;6.560;2022-08-21T11:52:04;3.97;;;1.67;;
20090;SDS011;10205;49.678;6.560;2022-08-21T11:54:42;2.90;;;1.70;;
20090;SDS011;10205;49.678;6.560;2022-08-21T11:57:16;4.40;;;1.70;;
20090;SDS011;10205;49.678;6.560;2022-08-21T11:59:49;4.07;;;1.75;;
20090;SDS011;10205;49.678;6.560;2022-08-21T12:02:24;2.90;;;1.50;;
20090;SDS011;10205;49.678;6.560;2022-08-21T12:05:02;5.47;;;2.45;;
20090;SDS011;10205;49.678;6.560;2022-08-21T12:07:34;4.35;;;1.88;;
20090;SDS011;10205;49.678;6.560;2022-08-21T12:10:06;3.78;;;1.90;;
20090;SDS011;10205;49.678;6.560;2022-08-21T12:12:39;5.18;;;2.22;;
20090;SDS011;10205;49.678;6.560;2022-08-21T12:17:59;3.17;;;1.50;;
20090;SDS011;10205;49.678;6.560;2022-08-21T12:20:39;1.98;;;1.20;;
20090;SDS011;10205;49.678;6.560;2022-08-21T12:25:59;3.72;;;1.55;;
20090;SDS011;10205;49.678;6.560;2022-08-21T12:28:45;4.38;;;1.83;;
20090;SDS011;10205;49.678;6.560;2022-08-21T12:31:22;3.20;;;1.88;;
20090;SDS011;10205;49.678;6.560;2022-08-21T12:33:54;3.60;;;1.58;;
20090;SDS011;10205;49.678;6.560;2022-08-21T12:36:27;3.15;;;1.85;;
20090;SDS011;10205;49.678;6.560;2022-08-21T12:39:11;5.78;;;1.75;;
20090;SDS011;10205;49.678;6.560;2022-08-21T12:41:46;2.55;;;1.77;;
20090;SDS011;10205;49.678;6.560;2022-08-21T12:44:21;2.78;;;1.63;;
20090;SDS011;10205;49.678;6.560;2022-08-21T12:46:58;4.18;;;2.10;;
20090;SDS011;10205;49.678;6.560;2022-08-21T12:49:31;4.53;;;1.88;;
20090;SDS011;10205;49.678;6.560;2022-08-21T12:52:08;4.07;;;1.75;;
20090;SDS011;10205;49.678;6.560;2022-08-21T12:54:45;3.17;;;1.83;;
20090;SDS011;10205;49.678;6.560;2022-08-21T12:57:18;4.13;;;1.40;;
20090;SDS011;10205;49.678;6.560;2022-08-21T12:59:51;4.35;;;1.80;;
20090;SDS011;10205;49.678;6.560;2022-08-21T13:02:22;3.40;;;1.77;;
20090;SDS011;10205;49.678;6.560;2022-08-21T13:04:54;2.58;;;1.50;;
20090;SDS011;10205;49.678;6.560;2022-08-21T13:07:26;4.78;;;1.90;;
20090;SDS011;10205;49.678;6.560;2022-08-21T13:09:59;4.45;;;1.98;;
20090;SDS011;10205;49.678;6.560;2022-08-21T13:12:31;6.53;;;1.83;;
20090;SDS011;10205;49.678;6.560;2022-08-21T13:15:02;5.75;;;1.40;;
20090;SDS011;10205;49.678;6.560;2022-08-21T13:17:34;4.10;;;1.70;;
20090;SDS011;10205;49.678;6.560;2022-08-21T13:20:07;4.18;;;1.92;;
20090;SDS011;10205;49.678;6.560;2022-08-21T13:22:46;3.55;;;1.58;;
20090;SDS011;10205;49.678;6.560;2022-08-21T13:25:14;3.78;;;1.77;;
20090;SDS011;10205;49.678;6.560;2022-08-21T13:27:45;2.47;;;1.70;;
20090;SDS011;10205;49.678;6.560;2022-08-21T13:30:24;6.50;;;1.65;;
20090;SDS011;10205;49.678;6.560;2022-08-21T13:32:54;2.20;;;1.52;;
20090;SDS011;10205;49.678;6.560;2022-08-21T13:35:26;3.35;;;1.63;;
20090;SDS011;10205;49.678;6.560;2022-08-21T13:38:03;3.05;;;1.45;;
20090;SDS011;10205;49.678;6.560;2022-08-21T13:40:32;2.47;;;1.52;;
20090;SDS011;10205;49.678;6.560;2022-08-21T13:43:11;2.80;;;1.60;;
20090;SDS011;10205;49.678;6.560;2022-08-21T13:45:42;4.75;;;1.90;;
20090;SDS011;10205;49.678;6.560;2022-08-21T13:48:13;4.40;;;1.65;;
20090;SDS011;10205;49.678;6.560;2022-08-21T13:50:41;3.75;;;2.10;;
20090;SDS011;10205;49.678;6.560;2022-08-21T13:53:21;3.70;;;1.85;;
20090;SDS011;10205;49.678;6.560;2022-08-21T13:55:56;4.32;;;1.60;;
20090;SDS011;10205;49.678;6.560;2022-08-21T13:58:25;3.13;;;1.48;;
20090;SDS011;10205;49.678;6.560;2022-08-21T14:00:55;3.22;;;1.85;;
20090;SDS011;10205;49.678;6.560;2022-08-21T14:03:27;3.35;;;2.05;;
20090;SDS011;10205;49.678;6.560;2022-08-21T14:06:00;4.85;;;1.70;;
20090;SDS011;10205;49.678;6.560;2022-08-21T14:08:31;3.72;;;1.55;;
20090;SDS011;10205;49.678;6.560;2022-08-21T14:11:03;4.20;;;1.90;;
20090;SDS011;10205;49.678;6.560;2022-08-21T14:13:34;3.88;;;1.80;;
20090;SDS011;10205;49.678;6.560;2022-08-21T14:16:13;2.80;;;1.60;;
20090;SDS011;10205;49.678;6.560;2022-08-21T14:18:45;3.75;;;1.60;;
20090;SDS011;10205;49.678;6.560;2022-08-21T14:21:26;4.35;;;1.70;;
20090;SDS011;10205;49.678;6.560;2022-08-21T14:24:06;2.42;;;1.27;;
20090;SDS011;10205;49.678;6.560;2022-08-21T14:26:41;3.92;;;1.60;;
20090;SDS011;10205;49.678;6.560;2022-08-21T14:29:15;4.32;;;1.73;;
20090;SDS011;10205;49.678;6.560;2022-08-21T14:31:48;3.05;;;1.42;;
20090;SDS011;10205;49.678;6.560;2022-08-21T14:34:18;1.92;;;1.42;;
20090;SDS011;10205;49.678;6.560;2022-08-21T14:36:47;2.30;;;1.50;;
20090;SDS011;10205;49.678;6.560;2022-08-21T14:39:17;2.42;;;1.80;;
20090;SDS011;10205;49.678;6.560;2022-08-21T14:41:45;7.45;;;1.50;;
20090;SDS011;10205;49.678;6.560;2022-08-21T14:44:14;2.90;;;1.60;;
20090;SDS011;10205;49.678;6.560;2022-08-21T14:46:42;2.05;;;1.20;;
20090;SDS011;10205;49.678;6.560;2022-08-21T14:49:10;2.85;;;1.50;;
20090;SDS011;10205;49.678;6.560;2022-08-21T14:51:38;5.60;;;2.20;;
20090;SDS011;10205;49.678;6.560;2022-08-21T14:54:05;3.35;;;1.77;;
20090;SDS011;10205;49.678;6.560;2022-08-21T14:56:37;5.90;;;1.70;;
20090;SDS011;10205;49.678;6.560;2022-08-21T14:59:06;4.70;;;1.60;;
20090;SDS011;10205;49.678;6.560;2022-08-21T15:01:36;2.53;;;1.70;;
20090;SDS011;10205;49.678;6.560;2022-08-21T15:04:05;2.30;;;1.55;;
20090;SDS011;10205;49.678;6.560;2022-08-21T15:06:32;2.88;;;1.60;;
20090;SDS011;10205;49.678;6.560;2022-08-21T15:08:59;2.03;;;1.38;;
20090;SDS011;10205;49.678;6.560;2022-08-21T15:11:29;4.32;;;1.90;;
20090;SDS011;10205;49.678;6.560;2022-08-21T15:14:00;3.00;;;1.63;;
20090;SDS011;10205;49.678;6.560;2022-08-21T15:16:33;2.58;;;1.48;;
20090;SDS011;10205;49.678;6.560;2022-08-21T15:19:02;2.25;;;1.45;;
20090;SDS011;10205;49.678;6.560;2022-08-21T15:21:29;5.28;;;2.22;;
20090;SDS011;10205;49.678;6.560;2022-08-21T15:23:56;2.10;;;1.27;;
20090;SDS011;10205;49.678;6.560;2022-08-21T15:26:24;3.05;;;1.77;;